Lennart Meri Tallinn Airport

EETN · Harjumaa, Estonia

METAR history EETN · Lennart Meri Tallinn Airport

Below you see METARs of the last few days. Select a year to browse through older METARs, from the year 2007 onwards.

April 15, 2024

Time Code Weather Temp. Visibility Ceiling Wind METAR/SPECI
23:50
V
2 °C 10 km+ - 260° 260° 14 kt METAR EETN 152050Z 26014KT 9999 FEW008 02/01 Q0998 TEMPO BKN008
23:20
V
3 °C 10 km+ - 260° 260° 16 kt METAR EETN 152020Z 26016KT 9999 FEW008 03/01 Q0998 TEMPO BKN008
22:50
V
3 °C 10 km+ - 260° 260° 16 kt METAR EETN 151950Z 26016KT CAVOK 03/01 Q0999 TEMPO BKN010
22:20
V
3 °C 10 km+ - 260° 260° 16 kt METAR EETN 151920Z 26016KT CAVOK 03/01 Q0998 TEMPO BKN010
21:50
V
3 °C 10 km+ - 250° 250° 14 kt METAR EETN 151850Z 25014KT CAVOK 03/01 Q0998 NOSIG
21:20
V
3 °C 10 km+ - 250° 250° 13 kt METAR EETN 151820Z 25013KT CAVOK 03/01 Q0998 NOSIG
20:50
V
4 °C 10 km+ - 250° 250° 13 kt METAR EETN 151750Z 25013KT CAVOK 04/01 Q0998 NOSIG
20:20
V
5 °C 10 km+ - 250° 250° 12 kt METAR EETN 151720Z 25012KT CAVOK 05/02 Q0998 NOSIG
19:50
V
6 °C 10 km+ - 260° 260° 14 kt METAR EETN 151650Z 26014KT CAVOK 06/01 Q0998 NOSIG
19:20
V
7 °C 10 km+ - 260° 260° 13 kt METAR EETN 151620Z 26013KT CAVOK 07/01 Q0998 NOSIG
18:50
V
7 °C 10 km+ - 270° 270° 14 kt METAR EETN 151550Z 27014KT CAVOK 07/02 Q0998 NOSIG
18:20
V
8 °C 10 km+ - 270° 270° 15 kt METAR EETN 151520Z 27015KT CAVOK 08/02 Q0997 NOSIG
17:50
V
8 °C 10 km+ - 270° 270° 15 kt METAR EETN 151450Z 27015KT CAVOK 08/02 Q0997 NOSIG
17:20
V
8 °C 10 km+ - 270° 270° 14 kt METAR EETN 151420Z 27014KT 9999 FEW045 08/03 Q0997 NOSIG
16:50
V
9 °C 10 km+ - 290° 290° 16 kt METAR EETN 151350Z 29016KT 9999 FEW043 09/03 Q0997 NOSIG
16:20
V
9 °C 10 km+ - 290° 290° 16 kt METAR EETN 151320Z 29016KT 9999 FEW045 09/02 Q0997 NOSIG
15:50
V
9 °C 10 km+ - 290° 290° 16 kt METAR EETN 151250Z 29016KT 9999 FEW046 09/03 Q0997 NOSIG
15:20
V
8 °C 10 km+ 4,800 ft 290° 290° 14 kt METAR EETN 151220Z 29014KT 9999 FEW030 BKN048 08/03 Q0997 NOSIG
14:50
V
7 °C 10 km+ 4,800 ft 290° 290° 12 kt METAR EETN 151150Z 29012KT 9999 SCT027 BKN048 07/02 Q0996 NOSIG
14:20
M
7 °C 10 km+ 2,300 ft 290° 290° 14 kt METAR EETN 151120Z 29014KT 9999 BKN023 BKN047 07/02 Q0996 NOSIG
13:50
M
7 °C 10 km+ 2,300 ft 300° 300° 12 kt METAR EETN 151050Z 30012KT 9999 BKN023 OVC048 07/02 Q0996 NOSIG
13:20
V
7 °C 10 km+ 4,700 ft 290° 290° 14 kt METAR EETN 151020Z 29014KT 9999 SCT030 BKN047 07/03 Q0996 NOSIG
12:50
V
6 °C 10 km+ 4,600 ft 290° 290° 13 kt METAR EETN 150950Z 29013KT 9999 FEW020 BKN046 06/02 Q0995 NOSIG
12:20
V
7 °C 10 km+ - 310° 310° 11 kt METAR EETN 150920Z 31011KT 9999 SCT018 SCT048 07/03 Q0995 NOSIG
11:50
V
5 °C 10 km+ - 310° 310° 11 kt METAR EETN 150850Z 31011KT 9999 SCT018 05/02 Q0995 NOSIG
11:20
M
5 °C 10 km+ 1,800 ft 300° 300° 12 kt METAR EETN 150820Z 30012KT 9999 BKN018 05/03 Q0994 NOSIG
10:50
V
5 °C 10 km+ - 300° 300° 13 kt METAR EETN 150750Z 30013KT 9999 SCT020 05/02 Q0994 NOSIG
10:20
V
6 °C 10 km+ - 310° 310° 15 kt METAR EETN 150720Z 31015KT 9999 FEW010 06/02 Q0993 NOSIG
09:50
V
5 °C 10 km+ - 310° 310° 12 kt METAR EETN 150650Z 31012KT 9999 FEW009 05/02 Q0993 NOSIG
09:20
V
5 °C 10 km+ - 310° 310° 13 kt METAR EETN 150620Z 31013KT 9999 FEW009 05/03 Q0993 NOSIG
08:50
V
5 °C 10 km+ - 310° 310° 14 kt METAR EETN 150550Z 31014KT 9999 FEW008 SCT015 05/03 Q0992 NOSIG
08:20
M
5 °C 10 km+ 1,300 ft 310° 310° 11 kt METAR EETN 150520Z 31011KT 9999 SCT005 OVC013 05/04 Q0992 NOSIG
07:50
M
4 °C 10 km+ 1,100 ft 300° 300° 11 kt METAR EETN 150450Z 30011KT 9999 -RA SCT005 OVC011 04/04 Q0991 NOSIG
07:20
L
4 °C 10 km+ 400 ft 300° 300° 13 kt METAR EETN 150420Z 30013KT 9999 -RA OVC004 04/04 Q0991 NOSIG
06:50
L
4 °C 10 km+ 400 ft 300° 300° 12 kt METAR EETN 150350Z 30012KT 9999 -RA OVC004 04/04 Q0990 TEMPO 4000 RA
06:20
L
4 °C 9 km 300 ft 300° 300° 10 kt METAR EETN 150320Z 30010KT 9000 -RA BKN003 OVC013 04/03 Q0990
05:50
L
3 °C 7.3 km 200 ft 290° 290° 10 kt METAR EETN 150250Z 29010KT 7300 -RA BKN002 OVC005 03/03 Q0990
05:20
I
3 °C 2.5 km - 300° 300° 8 kt METAR EETN 150220Z 30008KT 2500 0600E R26/1500U DZ BCFG 03/03 Q0990
04:50
L
2 °C 400 m 200 ft 320° 320° 9 kt METAR EETN 150150Z 32009KT 0400 R26/1200U FG VV002 02/02 Q0989
04:20
L
2 °C 500 m 200 ft 320° 320° 9 kt METAR EETN 150120Z 32009KT 0500 R26/P1400N FG VV002 02/02 Q0989
03:50
I
3 °C 1.6 km 500 ft 330° 330° 8 kt METAR EETN 150050Z 33008KT 1600 0500E R26/P2000N BR BCFG SCT002 OVC005 03/03 Q0989
03:20
L
4 °C 900 m 300 ft 310° 310° 5 kt METAR EETN 150020Z 31005KT 0900 R26/P1800N FG OVC003 04/04 Q0988
02:50
L
4 °C 10 km+ 300 ft 330° 330° 4 kt METAR EETN 142350Z 33004KT 9999 -DZ BKN003 OVC008 04/04 Q0988
02:20
L
4 °C 5 km 300 ft 280° 280° 4 kt METAR EETN 142320Z 28004KT 5000 -RADZ BR BKN003 OVC008 04/04 Q0988 RERADZ
01:50
L
4 °C 3.6 km 400 ft Var Var 2 kt METAR EETN 142250Z VRB02KT 3600 BR OVC004 04/04 Q0988
01:20
I
4 °C 10 km+ 500 ft 220° 220° 4 kt METAR EETN 142220Z 22004KT 9999 BKN005 04/04 Q0988
00:50
M
4 °C 10 km+ 1,700 ft 190° 190° 3 kt METAR EETN 142150Z 19003KT 150V220 9999 SCT009 BKN017 04/03 Q0988 TEMPO 4000 RADZ BR BKN005
00:20
M
4 °C 10 km+ 1,900 ft 200° 200° 5 kt METAR EETN 142120Z 20005KT 180V240 9999 -DZ FEW006 BKN019 04/04 Q0988 NOSIG

April 14, 2024

Time Code Weather Temp. Visibility Ceiling Wind METAR/SPECI
23:50
M
5 °C 10 km+ 1,100 ft 190° 190° 5 kt METAR EETN 142050Z 19005KT 9999 -DZ SCT008 BKN011 OVC024 05/04 Q0988 NOSIG
23:20
I
5 °C 10 km+ 800 ft 190° 190° 7 kt METAR EETN 142020Z 19007KT 9999 -DZ BKN008 OVC014 05/04 Q0988 NOSIG
22:50
I
5 °C 10 km+ 800 ft 180° 180° 6 kt METAR EETN 141950Z 18006KT 9999 -RA OVC008 05/04 Q0989 NOSIG
22:20
I
5 °C 10 km+ 800 ft 200° 200° 8 kt METAR EETN 141920Z 20008KT 9999 -RA BKN008 OVC016 05/04 Q0989 NOSIG
21:50
I
5 °C 10 km+ 900 ft 210° 210° 10 kt METAR EETN 141850Z 21010KT 9999 -RA BKN009 BKN015 OVC024 05/04 Q0990 TEMPO 5000 RA OVC007
21:20
M
5 °C 10 km+ 1,800 ft 220° 220° 12 kt METAR EETN 141820Z 22012KT 9999 -SHRA FEW008 SCT014CB OVC018 05/04 Q0990 NOSIG
20:50
M
5 °C 10 km+ 2,100 ft 210° 210° 8 kt METAR EETN 141750Z 21008KT 9999 -SHRA FEW011 SCT015CB OVC021 05/04 Q0991 TEMPO 5000 SHRA BKN009
20:20
M
5 °C 10 km+ 1,700 ft 200° 200° 9 kt METAR EETN 141720Z 20009KT 9999 -SHRA SCT013CB BKN017 OVC020 05/04 Q0991 TEMPO 5000 BKN009
19:50
M
5 °C 10 km+ 1,800 ft 230° 230° 10 kt METAR EETN 141650Z 23010KT 9999 -SHRA SCT009 SCT015CB BKN018 05/04 Q0991 NOSIG
19:20
M
5 °C 10 km+ 1,100 ft 240° 240° 11 kt METAR EETN 141620Z 24011KT 9999 -SHRA FEW008 BKN011 SCT018CB 05/04 Q0992 NOSIG
18:50
M
6 °C 7 km 2,100 ft 220° 220° 8 kt METAR EETN 141550Z 22008KT 7000 SHRA SCT014CB BKN021 06/04 Q0992 TEMPO 5000
18:20
M
6 °C 10 km+ 1,800 ft 260° 260° 13 kt METAR EETN 141520Z 26013KT 9999 -SHRA BKN018CB SCT020 06/04 Q0992 NOSIG
17:50
M
7 °C 10 km+ 2,500 ft 260° 260° 15 kt METAR EETN 141450Z 26015KT 9999 -SHRA SCT020CB BKN025 07/04 Q0992 TEMPO 27020G30KT
17:20
M
7 °C 8 km 2,300 ft 260° 260° 18 kt METAR EETN 141420Z 26018KT 8000 -SHRA SCT020CB BKN023 07/04 Q0993 TEMPO 27020G30KT
16:50
V
7 °C 10 km+ 3,500 ft 250° 250° 19 kt METAR EETN 141350Z 25019KT 9999 SCT021CB BKN035 07/04 Q0993 NOSIG
16:20
M
7 °C 10 km+ 3,000 ft 250° 250° 18 kt METAR EETN 141320Z 25018KT 9999 SCT016 BKN030 OVC042 07/04 Q0993 NOSIG
15:50
M
7 °C 10 km+ 1,100 ft 250° 250° 14 kt METAR EETN 141250Z 25014KT 9999 BKN011 FEW014CB BKN018 07/05 Q0993 TEMPO 26018G30KT
15:20
V
7 °C 10 km+ 3,200 ft 250° 250° 16 kt METAR EETN 141220Z 25016KT 9999 -SHRA SCT009 FEW015CB OVC032 07/06 Q0993 TEMPO 4000 SHRA
14:50
I
8 °C 8 km 700 ft 250° 250° 16 - 32 kt METAR EETN 141150Z 25016G32KT 8000 SHRA BKN007 SCT015CB BKN035 08/06 Q0992 TEMPO 4000 SHRA
14:20
I
8 °C 10 km+ 700 ft 180° 180° 9 kt METAR EETN 141120Z 18009KT 9999 -RA BKN007 OVC013 08/08 Q0992 TEMPO 5000 RA BKN004
13:50
I
8 °C 9 km 600 ft 160° 160° 9 kt METAR EETN 141050Z 16009KT 130V200 9000 -RA OVC006 08/08 Q0992 TEMPO 5000 RA BKN004
13:20
I
8 °C 10 km+ 600 ft 130° 130° 7 kt METAR EETN 141020Z 13007KT 9999 -RA BKN006 OVC014 08/07 Q0993 TEMPO 5000 RA BKN004
12:50
I
8 °C 8 km 600 ft 150° 150° 8 kt METAR EETN 140950Z 15008KT 120V180 8000 -RA BKN006 BKN013 OVC019 08/07 Q0994 TEMPO 4000 RA
12:20
I
8 °C 6 km 600 ft 150° 150° 8 kt METAR EETN 140920Z 15008KT 6000 RA BKN006 OVC029 08/07 Q0995 TEMPO 4000
11:50
I
8 °C 6 km 600 ft 150° 150° 8 kt METAR EETN 140850Z 15008KT 120V180 6000 RA BKN006 OVC030 08/07 Q0996 TEMPO 4000
11:20
M
8 °C 10 km+ 2,600 ft 170° 170° 11 kt METAR EETN 140820Z 17011KT 9999 -RA SCT007 BKN026 OVC037 08/07 Q0996 TEMPO 5000 RA
10:50
I
7 °C 10 km+ 700 ft 180° 180° 11 kt METAR EETN 140750Z 18011KT 9999 -RA OVC007 07/06 Q0997 TEMPO 5000 RA
10:20
I
7 °C 10 km+ 600 ft 180° 180° 8 kt METAR EETN 140720Z 18008KT 9999 OVC006 07/06 Q0998 TEMPO 5000 RA
09:50
L
6 °C 10 km+ 400 ft 180° 180° 9 kt METAR EETN 140650Z 18009KT 9999 OVC004 06/06 Q0998 NOSIG
09:20
L
6 °C 10 km+ 400 ft 180° 180° 9 kt METAR EETN 140620Z 18009KT 9999 OVC004 06/06 Q0999 NOSIG
08:50
L
6 °C 10 km+ 300 ft 190° 190° 9 kt METAR EETN 140550Z 19009KT 9999 OVC003 06/05 Q0999 NOSIG
08:20
L
6 °C 10 km+ 400 ft 200° 200° 10 kt METAR EETN 140520Z 20010KT 9999 OVC004 06/05 Q1000 NOSIG
07:50
L
6 °C 9 km 400 ft 200° 200° 10 kt METAR EETN 140450Z 20010KT 9000 OVC004 06/05 Q1001 NOSIG
07:20
L
6 °C 8 km 300 ft 190° 190° 9 kt METAR EETN 140420Z 19009KT 8000 OVC003 06/05 Q1001 NOSIG
06:50
L
6 °C 6 km 300 ft 190° 190° 10 kt METAR EETN 140350Z 19010KT 6000 OVC003 06/05 Q1002 NOSIG
06:20
L
6 °C 9 km 300 ft 200° 200° 10 kt METAR EETN 140320Z 20010KT 9000 OVC003 06/05 Q1002
05:50
L
6 °C 10 km+ 400 ft 200° 200° 10 kt METAR EETN 140250Z 20010KT 9999 OVC004 06/06 Q1002
05:20
L
6 °C 10 km+ 400 ft 210° 210° 11 kt METAR EETN 140220Z 21011KT 9999 OVC004 06/06 Q1003
04:50
L
7 °C 10 km+ 400 ft 210° 210° 9 kt METAR EETN 140150Z 21009KT 9999 OVC004 07/06 Q1003
04:20
L
7 °C 10 km+ 400 ft 210° 210° 11 kt METAR EETN 140120Z 21011KT 9999 BKN004 07/06 Q1003
03:50
L
6 °C 10 km+ 400 ft 210° 210° 9 kt METAR EETN 140050Z 21009KT 9999 BKN004 06/06 Q1004
03:20
I
7 °C 10 km+ 500 ft 220° 220° 9 kt METAR EETN 140020Z 22009KT 9999 BKN005 07/06 Q1004
02:50
I
7 °C 10 km+ 500 ft 220° 220° 12 kt METAR EETN 132350Z 22012KT 9999 OVC005 07/06 Q1005
02:20
I
7 °C 10 km+ 500 ft 230° 230° 9 kt METAR EETN 132320Z 23009KT 9999 BKN005 BKN043 07/06 Q1005
01:50
I
7 °C 10 km+ 600 ft 230° 230° 11 kt METAR EETN 132250Z 23011KT 9999 BKN006 OVC038 07/07 Q1005
01:20
I
8 °C 10 km+ 600 ft 230° 230° 11 kt METAR EETN 132220Z 23011KT 9999 OVC006 08/07 Q1005
00:50
I
8 °C 10 km+ 600 ft 230° 230° 10 kt METAR EETN 132150Z 23010KT 9999 OVC006 08/07 Q1005 NOSIG
00:20
I
8 °C 10 km+ 500 ft 230° 230° 9 kt METAR EETN 132120Z 23009KT 9999 OVC005 08/08 Q1005 NOSIG

April 13, 2024

Time Code Weather Temp. Visibility Ceiling Wind METAR/SPECI
23:50
L
8 °C 10 km+ 400 ft 220° 220° 9 kt METAR EETN 132050Z 22009KT 9999 OVC004 08/08 Q1005 NOSIG
23:20
L
8 °C 10 km+ 400 ft 230° 230° 9 kt METAR EETN 132020Z 23009KT 9999 OVC004 08/07 Q1006 NOSIG
22:50
L
8 °C 10 km+ 400 ft 220° 220° 11 kt METAR EETN 131950Z 22011KT 9999 OVC004 08/07 Q1006 NOSIG
22:20
I
8 °C 10 km+ 500 ft 220° 220° 9 kt METAR EETN 131920Z 22009KT 9999 OVC005 08/07 Q1006 NOSIG
21:50
I
8 °C 5 km 500 ft 210° 210° 11 kt METAR EETN 131850Z 21011KT 5000 DZ OVC005 08/07 Q1006 TEMPO 3000
21:20
I
8 °C 5 km 500 ft 200° 200° 10 kt METAR EETN 131820Z 20010KT 170V230 5000 DZ OVC005 08/07 Q1007 TEMPO 3000
20:50
I
8 °C 8 km 500 ft 200° 200° 9 kt METAR EETN 131750Z 20009KT 8000 -RA OVC005 08/07 Q1007 TEMPO 4000 RA
20:20
I
8 °C 6 km 500 ft 200° 200° 10 kt METAR EETN 131720Z 20010KT 6000 -DZ OVC005 08/07 Q1007 TEMPO 3000 RA
19:50
I
8 °C 5 km 700 ft 210° 210° 10 kt METAR EETN 131650Z 21010KT 5000 DZRA OVC007 08/07 Q1007 TEMPO 3000 RA
19:20
I
8 °C 10 km+ 500 ft 220° 220° 11 kt METAR EETN 131620Z 22011KT 9999 -RA OVC005 08/08 Q1008 TEMPO 3000 RA
18:50
I
8 °C 4.4 km 700 ft 230° 230° 11 kt METAR EETN 131550Z 23011KT 4400 -DZ BR OVC007 08/08 Q1008 TEMPO 3000 RA BKN005
18:20
I
8 °C 4.8 km 900 ft 230° 230° 12 kt METAR EETN 131520Z 23012KT 200V260 4800 -DZ BR OVC009 08/07 Q1009 TEMPO 3000 RA
17:50
M
9 °C 10 km+ 1,000 ft 220° 220° 11 kt METAR EETN 131450Z 22011KT 9999 OVC010 09/07 Q1009 TEMPO OVC008
17:20
M
9 °C 10 km+ 1,100 ft 240° 240° 15 kt METAR EETN 131420Z 24015KT 9999 -DZ OVC011 09/06 Q1009 TEMPO OVC008
16:50
M
9 °C 10 km+ 1,400 ft 230° 230° 12 kt METAR EETN 131350Z 23012KT 9999 OVC014 09/06 Q1009 NOSIG
16:20
M
9 °C 10 km+ 1,400 ft 220° 220° 13 kt METAR EETN 131320Z 22013KT 9999 OVC014 09/07 Q1010 NOSIG
15:50
M
10 °C 10 km+ 1,500 ft 240° 240° 13 kt METAR EETN 131250Z 24013KT 9999 OVC015 10/07 Q1010 NOSIG
15:20
M
11 °C 10 km+ 1,400 ft 210° 210° 12 kt METAR EETN 131220Z 21012KT 9999 BKN014 OVC021 11/08 Q1010 NOSIG
14:50
M
11 °C 10 km+ 1,200 ft 220° 220° 11 kt METAR EETN 131150Z 22011KT 9999 BKN012 OVC020 11/08 Q1010 NOSIG
14:20
M
10 °C 10 km+ 1,400 ft 240° 240° 9 kt METAR EETN 131120Z 24009KT 9999 BKN014 OVC027 10/08 Q1011 NOSIG
13:50
M
10 °C 10 km+ 2,000 ft 240° 240° 10 kt METAR EETN 131050Z 24010KT 9999 SCT010 OVC020 10/08 Q1011 NOSIG
13:20
M
10 °C 10 km+ 1,500 ft 250° 250° 9 kt METAR EETN 131020Z 25009KT 9999 SCT007 OVC015 10/09 Q1011 NOSIG
12:50
I
9 °C 9 km 700 ft 230° 230° 9 kt METAR EETN 130950Z 23009KT 9000 -DZ OVC007 09/09 Q1011 NOSIG
12:20
I
9 °C 6 km 500 ft 230° 230° 9 kt METAR EETN 130920Z 23009KT 6000 -DZ OVC005 09/08 Q1011 TEMPO 3000 BR
11:50
I
9 °C 6 km 500 ft 230° 230° 8 kt METAR EETN 130850Z 23008KT 6000 -DZ OVC005 09/08 Q1011 TEMPO 3000 BR
11:20
L
8 °C 4.5 km 400 ft 230° 230° 8 kt METAR EETN 130820Z 23008KT 4500 -DZ BR OVC004 08/08 Q1012 TEMPO 2000
10:50
I
8 °C 8 km 500 ft 220° 220° 9 kt METAR EETN 130750Z 22009KT 8000 -DZ OVC005 08/08 Q1011 TEMPO 2000 BR
10:20
I
8 °C 7 km 500 ft 220° 220° 9 kt METAR EETN 130720Z 22009KT 7000 -DZ OVC005 08/07 Q1011 TEMPO 2000 BR
09:50
I
8 °C 10 km+ 500 ft 220° 220° 9 kt METAR EETN 130650Z 22009KT 9999 OVC005 08/07 Q1011 NOSIG
09:20
L
8 °C 10 km+ 400 ft 220° 220° 7 kt METAR EETN 130620Z 22007KT 9999 OVC004 08/07 Q1011 NOSIG
08:50
L
7 °C 10 km+ 400 ft 210° 210° 7 kt METAR EETN 130550Z 21007KT 9999 OVC004 07/07 Q1012 NOSIG
Report a change